sensor_id;sensor_type;location;lat;lon;timestamp;P1;durP1;ratioP1;P2;durP2;ratioP2
65879;SDS011;52661;51.364;6.054;2023-04-24T00:00:15;2.93;;;1.33;;
65879;SDS011;52661;51.364;6.054;2023-04-24T00:02:41;3.92;;;1.73;;
65879;SDS011;52661;51.364;6.054;2023-04-24T00:05:11;5.97;;;1.98;;
65879;SDS011;52661;51.364;6.054;2023-04-24T00:07:37;5.00;;;1.80;;
65879;SDS011;52661;51.364;6.054;2023-04-24T00:10:02;5.20;;;2.22;;
65879;SDS011;52661;51.364;6.054;2023-04-24T00:12:28;5.93;;;2.22;;
65879;SDS011;52661;51.364;6.054;2023-04-24T00:14:53;3.53;;;1.20;;
65879;SDS011;52661;51.364;6.054;2023-04-24T00:17:18;3.70;;;1.10;;
65879;SDS011;52661;51.364;6.054;2023-04-24T00:19:47;4.80;;;1.33;;
65879;SDS011;52661;51.364;6.054;2023-04-24T00:24:40;2.97;;;0.73;;
65879;SDS011;52661;51.364;6.054;2023-04-24T00:27:05;3.27;;;1.23;;
65879;SDS011;52661;51.364;6.054;2023-04-24T00:29:31;3.03;;;1.10;;
65879;SDS011;52661;51.364;6.054;2023-04-24T00:31:56;3.35;;;1.08;;
65879;SDS011;52661;51.364;6.054;2023-04-24T00:34:22;3.33;;;1.45;;
65879;SDS011;52661;51.364;6.054;2023-04-24T00:36:47;5.72;;;1.58;;
65879;SDS011;52661;51.364;6.054;2023-04-24T00:41:40;4.30;;;1.60;;
65879;SDS011;52661;51.364;6.054;2023-04-24T00:44:05;4.50;;;1.80;;
65879;SDS011;52661;51.364;6.054;2023-04-24T00:46:31;4.40;;;1.83;;
65879;SDS011;52661;51.364;6.054;2023-04-24T00:48:56;7.10;;;1.73;;
65879;SDS011;52661;51.364;6.054;2023-04-24T00:51:24;3.15;;;1.40;;
65879;SDS011;52661;51.364;6.054;2023-04-24T00:53:49;4.75;;;1.67;;
65879;SDS011;52661;51.364;6.054;2023-04-24T00:56:15;3.25;;;1.55;;
65879;SDS011;52661;51.364;6.054;2023-04-24T00:58:41;5.70;;;1.83;;
65879;SDS011;52661;51.364;6.054;2023-04-24T01:01:07;4.72;;;1.50;;
65879;SDS011;52661;51.364;6.054;2023-04-24T01:03:34;7.82;;;2.83;;
65879;SDS011;52661;51.364;6.054;2023-04-24T01:06:01;6.60;;;2.38;;
65879;SDS011;52661;51.364;6.054;2023-04-24T01:08:28;8.07;;;3.13;;
65879;SDS011;52661;51.364;6.054;2023-04-24T01:10:54;6.97;;;2.60;;
65879;SDS011;52661;51.364;6.054;2023-04-24T01:13:21;7.53;;;2.58;;
65879;SDS011;52661;51.364;6.054;2023-04-24T01:15:47;6.40;;;2.72;;
65879;SDS011;52661;51.364;6.054;2023-04-24T01:18:13;3.92;;;1.70;;
65879;SDS011;52661;51.364;6.054;2023-04-24T01:20:40;6.57;;;2.53;;
65879;SDS011;52661;51.364;6.054;2023-04-24T01:23:07;7.50;;;2.88;;
65879;SDS011;52661;51.364;6.054;2023-04-24T01:25:33;5.13;;;2.00;;
65879;SDS011;52661;51.364;6.054;2023-04-24T01:27:59;6.65;;;2.90;;
65879;SDS011;52661;51.364;6.054;2023-04-24T01:30:25;6.65;;;2.95;;
65879;SDS011;52661;51.364;6.054;2023-04-24T01:32:51;6.18;;;3.13;;
65879;SDS011;52661;51.364;6.054;2023-04-24T01:35:17;8.10;;;3.72;;
65879;SDS011;52661;51.364;6.054;2023-04-24T01:37:42;7.82;;;3.53;;
65879;SDS011;52661;51.364;6.054;2023-04-24T01:40:08;7.00;;;3.20;;
65879;SDS011;52661;51.364;6.054;2023-04-24T01:42:34;6.20;;;2.90;;
65879;SDS011;52661;51.364;6.054;2023-04-24T01:44:59;5.87;;;2.60;;
65879;SDS011;52661;51.364;6.054;2023-04-24T01:47:26;9.75;;;2.95;;
65879;SDS011;52661;51.364;6.054;2023-04-24T01:49:52;8.68;;;3.67;;
65879;SDS011;52661;51.364;6.054;2023-04-24T01:52:17;10.43;;;4.17;;
65879;SDS011;52661;51.364;6.054;2023-04-24T01:54:43;10.43;;;3.15;;
65879;SDS011;52661;51.364;6.054;2023-04-24T01:57:09;5.95;;;3.45;;
65879;SDS011;52661;51.364;6.054;2023-04-24T01:59:35;7.55;;;2.78;;
65879;SDS011;52661;51.364;6.054;2023-04-24T02:02:01;6.93;;;3.22;;
65879;SDS011;52661;51.364;6.054;2023-04-24T02:04:27;8.02;;;2.72;;
65879;SDS011;52661;51.364;6.054;2023-04-24T02:06:53;11.88;;;5.22;;
65879;SDS011;52661;51.364;6.054;2023-04-24T02:09:18;10.75;;;3.80;;
65879;SDS011;52661;51.364;6.054;2023-04-24T02:11:43;13.37;;;4.43;;
65879;SDS011;52661;51.364;6.054;2023-04-24T02:14:09;11.27;;;3.90;;
65879;SDS011;52661;51.364;6.054;2023-04-24T02:16:34;9.05;;;4.25;;
65879;SDS011;52661;51.364;6.054;2023-04-24T02:19:00;11.25;;;4.78;;
65879;SDS011;52661;51.364;6.054;2023-04-24T02:21:26;6.13;;;2.60;;
65879;SDS011;52661;51.364;6.054;2023-04-24T02:23:52;9.48;;;3.97;;
65879;SDS011;52661;51.364;6.054;2023-04-24T02:26:18;10.02;;;4.40;;
65879;SDS011;52661;51.364;6.054;2023-04-24T02:28:43;8.57;;;3.72;;
65879;SDS011;52661;51.364;6.054;2023-04-24T02:31:09;9.63;;;3.90;;
65879;SDS011;52661;51.364;6.054;2023-04-24T02:33:34;12.55;;;4.53;;
65879;SDS011;52661;51.364;6.054;2023-04-24T02:36:00;9.73;;;4.47;;
65879;SDS011;52661;51.364;6.054;2023-04-24T02:38:26;9.80;;;4.20;;
65879;SDS011;52661;51.364;6.054;2023-04-24T02:40:51;10.00;;;5.13;;
65879;SDS011;52661;51.364;6.054;2023-04-24T02:43:17;8.85;;;4.05;;
65879;SDS011;52661;51.364;6.054;2023-04-24T02:45:42;10.23;;;5.30;;
65879;SDS011;52661;51.364;6.054;2023-04-24T02:48:07;13.23;;;5.43;;
65879;SDS011;52661;51.364;6.054;2023-04-24T02:50:33;13.60;;;5.27;;
65879;SDS011;52661;51.364;6.054;2023-04-24T02:52:58;8.48;;;3.90;;
65879;SDS011;52661;51.364;6.054;2023-04-24T02:55:24;10.70;;;4.60;;
65879;SDS011;52661;51.364;6.054;2023-04-24T02:57:50;8.82;;;3.83;;
65879;SDS011;52661;51.364;6.054;2023-04-24T03:00:15;10.23;;;4.03;;
65879;SDS011;52661;51.364;6.054;2023-04-24T03:02:41;11.98;;;4.18;;
65879;SDS011;52661;51.364;6.054;2023-04-24T03:05:06;8.90;;;4.20;;
65879;SDS011;52661;51.364;6.054;2023-04-24T03:07:32;8.93;;;3.58;;
65879;SDS011;52661;51.364;6.054;2023-04-24T03:09:57;9.70;;;3.90;;
65879;SDS011;52661;51.364;6.054;2023-04-24T03:12:23;10.98;;;5.30;;
65879;SDS011;52661;51.364;6.054;2023-04-24T03:14:48;9.57;;;4.25;;
65879;SDS011;52661;51.364;6.054;2023-04-24T03:17:14;10.73;;;5.15;;
65879;SDS011;52661;51.364;6.054;2023-04-24T03:19:39;12.57;;;4.63;;
65879;SDS011;52661;51.364;6.054;2023-04-24T03:22:05;10.97;;;4.53;;
65879;SDS011;52661;51.364;6.054;2023-04-24T03:24:30;12.13;;;4.90;;
65879;SDS011;52661;51.364;6.054;2023-04-24T03:26:55;5.13;;;2.57;;
65879;SDS011;52661;51.364;6.054;2023-04-24T03:29:21;10.32;;;5.55;;
65879;SDS011;52661;51.364;6.054;2023-04-24T03:31:47;10.48;;;4.18;;
65879;SDS011;52661;51.364;6.054;2023-04-24T03:34:12;9.00;;;2.97;;
65879;SDS011;52661;51.364;6.054;2023-04-24T03:36:37;7.43;;;3.80;;
65879;SDS011;52661;51.364;6.054;2023-04-24T03:39:04;6.63;;;3.20;;
65879;SDS011;52661;51.364;6.054;2023-04-24T03:41:29;6.73;;;3.63;;
65879;SDS011;52661;51.364;6.054;2023-04-24T03:43:55;9.20;;;3.67;;
65879;SDS011;52661;51.364;6.054;2023-04-24T03:46:20;12.52;;;4.80;;
65879;SDS011;52661;51.364;6.054;2023-04-24T03:48:46;12.50;;;4.40;;
65879;SDS011;52661;51.364;6.054;2023-04-24T03:51:11;10.00;;;4.38;;
65879;SDS011;52661;51.364;6.054;2023-04-24T03:53:37;7.60;;;3.70;;
65879;SDS011;52661;51.364;6.054;2023-04-24T03:56:02;6.80;;;2.87;;
65879;SDS011;52661;51.364;6.054;2023-04-24T03:58:27;8.82;;;3.22;;
65879;SDS011;52661;51.364;6.054;2023-04-24T04:00:53;7.17;;;3.67;;
65879;SDS011;52661;51.364;6.054;2023-04-24T04:03:18;7.20;;;2.27;;
65879;SDS011;52661;51.364;6.054;2023-04-24T04:05:43;10.83;;;4.87;;
65879;SDS011;52661;51.364;6.054;2023-04-24T04:08:09;6.43;;;2.83;;
65879;SDS011;52661;51.364;6.054;2023-04-24T04:10:34;7.00;;;3.97;;
65879;SDS011;52661;51.364;6.054;2023-04-24T04:12:59;8.98;;;2.55;;
65879;SDS011;52661;51.364;6.054;2023-04-24T04:15:25;3.33;;;1.45;;
65879;SDS011;52661;51.364;6.054;2023-04-24T04:17:50;6.55;;;2.95;;
65879;SDS011;52661;51.364;6.054;2023-04-24T04:20:15;4.40;;;2.13;;
65879;SDS011;52661;51.364;6.054;2023-04-24T04:22:41;7.80;;;2.70;;
65879;SDS011;52661;51.364;6.054;2023-04-24T04:25:06;8.25;;;2.10;;
65879;SDS011;52661;51.364;6.054;2023-04-24T04:27:33;4.53;;;1.67;;
65879;SDS011;52661;51.364;6.054;2023-04-24T04:29:59;5.45;;;2.85;;
65879;SDS011;52661;51.364;6.054;2023-04-24T04:32:29;6.15;;;3.35;;
65879;SDS011;52661;51.364;6.054;2023-04-24T04:35:01;4.95;;;2.22;;
65879;SDS011;52661;51.364;6.054;2023-04-24T04:37:29;5.40;;;2.28;;
65879;SDS011;52661;51.364;6.054;2023-04-24T04:39:56;7.28;;;3.03;;
65879;SDS011;52661;51.364;6.054;2023-04-24T04:42:23;7.85;;;3.03;;
65879;SDS011;52661;51.364;6.054;2023-04-24T04:44:48;6.25;;;2.45;;
65879;SDS011;52661;51.364;6.054;2023-04-24T04:47:15;8.57;;;2.42;;
65879;SDS011;52661;51.364;6.054;2023-04-24T04:49:41;5.85;;;2.75;;
65879;SDS011;52661;51.364;6.054;2023-04-24T04:52:06;6.97;;;2.15;;
65879;SDS011;52661;51.364;6.054;2023-04-24T04:54:31;7.83;;;3.33;;
65879;SDS011;52661;51.364;6.054;2023-04-24T04:56:57;6.00;;;1.70;;
65879;SDS011;52661;51.364;6.054;2023-04-24T04:59:22;6.47;;;2.97;;
65879;SDS011;52661;51.364;6.054;2023-04-24T05:01:48;6.45;;;2.75;;
65879;SDS011;52661;51.364;6.054;2023-04-24T05:04:13;6.20;;;2.83;;
65879;SDS011;52661;51.364;6.054;2023-04-24T05:06:38;4.77;;;2.23;;
65879;SDS011;52661;51.364;6.054;2023-04-24T05:09:04;5.88;;;2.55;;
65879;SDS011;52661;51.364;6.054;2023-04-24T05:11:29;7.10;;;2.42;;
65879;SDS011;52661;51.364;6.054;2023-04-24T05:13:55;7.80;;;1.90;;
65879;SDS011;52661;51.364;6.054;2023-04-24T05:16:20;4.67;;;2.30;;
65879;SDS011;52661;51.364;6.054;2023-04-24T05:18:46;6.35;;;2.47;;
65879;SDS011;52661;51.364;6.054;2023-04-24T05:21:11;5.70;;;3.00;;
65879;SDS011;52661;51.364;6.054;2023-04-24T05:23:37;6.63;;;3.05;;
65879;SDS011;52661;51.364;6.054;2023-04-24T05:26:02;5.07;;;2.03;;
65879;SDS011;52661;51.364;6.054;2023-04-24T05:28:27;6.23;;;2.33;;
65879;SDS011;52661;51.364;6.054;2023-04-24T05:30:53;6.10;;;2.10;;
65879;SDS011;52661;51.364;6.054;2023-04-24T05:33:20;9.13;;;2.90;;
65879;SDS011;52661;51.364;6.054;2023-04-24T05:35:47;3.55;;;1.55;;
65879;SDS011;52661;51.364;6.054;2023-04-24T05:38:12;7.10;;;2.70;;
65879;SDS011;52661;51.364;6.054;2023-04-24T05:40:38;7.05;;;3.38;;
65879;SDS011;52661;51.364;6.054;2023-04-24T05:43:04;8.07;;;2.63;;
65879;SDS011;52661;51.364;6.054;2023-04-24T05:45:29;5.32;;;2.47;;
65879;SDS011;52661;51.364;6.054;2023-04-24T05:47:55;7.38;;;2.53;;
65879;SDS011;52661;51.364;6.054;2023-04-24T05:50:20;5.57;;;2.33;;
65879;SDS011;52661;51.364;6.054;2023-04-24T05:52:45;6.57;;;2.38;;
65879;SDS011;52661;51.364;6.054;2023-04-24T05:55:11;4.37;;;1.93;;
65879;SDS011;52661;51.364;6.054;2023-04-24T05:57:36;5.55;;;2.03;;
65879;SDS011;52661;51.364;6.054;2023-04-24T06:00:02;6.30;;;2.10;;
65879;SDS011;52661;51.364;6.054;2023-04-24T06:02:29;6.03;;;2.53;;
65879;SDS011;52661;51.364;6.054;2023-04-24T06:04:57;4.82;;;2.10;;
65879;SDS011;52661;51.364;6.054;2023-04-24T06:07:24;2.75;;;1.02;;
65879;SDS011;52661;51.364;6.054;2023-04-24T06:09:51;4.75;;;1.70;;
65879;SDS011;52661;51.364;6.054;2023-04-24T06:12:16;3.78;;;1.45;;
65879;SDS011;52661;51.364;6.054;2023-04-24T06:14:41;2.90;;;1.43;;
65879;SDS011;52661;51.364;6.054;2023-04-24T06:17:06;2.63;;;1.00;;
65879;SDS011;52661;51.364;6.054;2023-04-24T06:19:32;3.57;;;1.13;;
65879;SDS011;52661;51.364;6.054;2023-04-24T06:21:57;1.47;;;0.60;;
65879;SDS011;52661;51.364;6.054;2023-04-24T06:24:24;3.00;;;0.80;;
65879;SDS011;52661;51.364;6.054;2023-04-24T06:26:52;1.73;;;0.70;;
65879;SDS011;52661;51.364;6.054;2023-04-24T06:29:17;2.47;;;0.60;;
65879;SDS011;52661;51.364;6.054;2023-04-24T06:31:42;1.63;;;0.93;;
65879;SDS011;52661;51.364;6.054;2023-04-24T06:34:08;1.60;;;0.63;;
65879;SDS011;52661;51.364;6.054;2023-04-24T06:36:33;3.97;;;0.70;;
65879;SDS011;52661;51.364;6.054;2023-04-24T06:39:00;1.38;;;0.65;;
65879;SDS011;52661;51.364;6.054;2023-04-24T06:41:25;1.90;;;0.50;;
65879;SDS011;52661;51.364;6.054;2023-04-24T06:43:50;1.90;;;0.55;;
65879;SDS011;52661;51.364;6.054;2023-04-24T06:46:16;1.93;;;0.43;;
65879;SDS011;52661;51.364;6.054;2023-04-24T06:48:41;1.38;;;0.50;;
65879;SDS011;52661;51.364;6.054;2023-04-24T06:51:06;1.30;;;0.30;;
65879;SDS011;52661;51.364;6.054;2023-04-24T06:53:32;2.03;;;0.30;;
65879;SDS011;52661;51.364;6.054;2023-04-24T06:55:58;1.20;;;0.30;;
65879;SDS011;52661;51.364;6.054;2023-04-24T06:58:24;2.87;;;0.80;;
65879;SDS011;52661;51.364;6.054;2023-04-24T07:00:50;1.15;;;0.50;;
65879;SDS011;52661;51.364;6.054;2023-04-24T07:03:15;1.20;;;0.60;;
65879;SDS011;52661;51.364;6.054;2023-04-24T07:05:40;1.55;;;0.80;;
65879;SDS011;52661;51.364;6.054;2023-04-24T07:08:06;1.55;;;0.38;;
65879;SDS011;52661;51.364;6.054;2023-04-24T07:10:32;1.80;;;0.52;;
65879;SDS011;52661;51.364;6.054;2023-04-24T07:13:00;3.92;;;0.73;;
65879;SDS011;52661;51.364;6.054;2023-04-24T07:15:26;2.15;;;0.40;;
65879;SDS011;52661;51.364;6.054;2023-04-24T07:17:52;3.00;;;0.60;;
65879;SDS011;52661;51.364;6.054;2023-04-24T07:20:17;1.60;;;0.47;;
65879;SDS011;52661;51.364;6.054;2023-04-24T07:22:42;1.38;;;0.77;;
65879;SDS011;52661;51.364;6.054;2023-04-24T07:25:08;2.38;;;0.70;;
65879;SDS011;52661;51.364;6.054;2023-04-24T07:27:34;2.00;;;0.45;;
65879;SDS011;52661;51.364;6.054;2023-04-24T07:30:00;3.33;;;0.40;;
65879;SDS011;52661;51.364;6.054;2023-04-24T07:32:26;1.17;;;0.40;;
65879;SDS011;52661;51.364;6.054;2023-04-24T07:34:51;2.87;;;0.67;;
65879;SDS011;52661;51.364;6.054;2023-04-24T07:37:17;2.63;;;0.57;;
65879;SDS011;52661;51.364;6.054;2023-04-24T07:39:42;2.50;;;0.60;;
65879;SDS011;52661;51.364;6.054;2023-04-24T07:42:07;1.88;;;0.75;;
65879;SDS011;52661;51.364;6.054;2023-04-24T07:44:33;1.97;;;0.50;;
65879;SDS011;52661;51.364;6.054;2023-04-24T07:46:58;2.57;;;0.50;;
65879;SDS011;52661;51.364;6.054;2023-04-24T07:49:23;3.47;;;0.40;;
65879;SDS011;52661;51.364;6.054;2023-04-24T07:51:49;1.88;;;0.60;;
65879;SDS011;52661;51.364;6.054;2023-04-24T07:54:15;3.72;;;1.50;;
65879;SDS011;52661;51.364;6.054;2023-04-24T07:56:40;3.72;;;1.77;;
65879;SDS011;52661;51.364;6.054;2023-04-24T07:59:07;7.32;;;2.70;;
65879;SDS011;52661;51.364;6.054;2023-04-24T08:01:34;7.95;;;3.60;;
65879;SDS011;52661;51.364;6.054;2023-04-24T08:04:00;8.23;;;2.83;;
65879;SDS011;52661;51.364;6.054;2023-04-24T08:06:25;9.48;;;3.03;;
65879;SDS011;52661;51.364;6.054;2023-04-24T08:08:55;6.75;;;2.72;;
65879;SDS011;52661;51.364;6.054;2023-04-24T08:11:20;6.90;;;3.08;;
65879;SDS011;52661;51.364;6.054;2023-04-24T08:13:45;8.67;;;3.10;;
65879;SDS011;52661;51.364;6.054;2023-04-24T08:16:11;6.20;;;2.20;;
65879;SDS011;52661;51.364;6.054;2023-04-24T08:18:36;9.55;;;3.78;;
65879;SDS011;52661;51.364;6.054;2023-04-24T08:21:01;5.77;;;2.80;;
65879;SDS011;52661;51.364;6.054;2023-04-24T08:23:27;4.90;;;2.75;;
65879;SDS011;52661;51.364;6.054;2023-04-24T08:25:53;6.43;;;2.90;;
65879;SDS011;52661;51.364;6.054;2023-04-24T08:28:19;7.03;;;1.85;;
65879;SDS011;52661;51.364;6.054;2023-04-24T08:30:45;6.90;;;2.35;;
65879;SDS011;52661;51.364;6.054;2023-04-24T08:33:12;7.07;;;2.45;;
65879;SDS011;52661;51.364;6.054;2023-04-24T08:35:37;5.53;;;1.80;;
65879;SDS011;52661;51.364;6.054;2023-04-24T08:38:03;6.88;;;2.05;;
65879;SDS011;52661;51.364;6.054;2023-04-24T08:40:29;5.45;;;1.60;;
65879;SDS011;52661;51.364;6.054;2023-04-24T08:42:58;9.40;;;1.77;;
65879;SDS011;52661;51.364;6.054;2023-04-24T08:45:25;7.60;;;1.92;;
65879;SDS011;52661;51.364;6.054;2023-04-24T08:47:51;7.95;;;2.08;;
65879;SDS011;52661;51.364;6.054;2023-04-24T08:50:18;4.80;;;1.80;;
65879;SDS011;52661;51.364;6.054;2023-04-24T08:52:44;4.85;;;1.65;;
65879;SDS011;52661;51.364;6.054;2023-04-24T08:55:09;5.25;;;1.63;;
65879;SDS011;52661;51.364;6.054;2023-04-24T08:57:35;8.43;;;2.35;;
65879;SDS011;52661;51.364;6.054;2023-04-24T09:00:01;7.75;;;1.58;;
65879;SDS011;52661;51.364;6.054;2023-04-24T09:02:26;7.03;;;2.13;;
65879;SDS011;52661;51.364;6.054;2023-04-24T09:04:52;6.10;;;1.95;;
65879;SDS011;52661;51.364;6.054;2023-04-24T09:07:18;6.35;;;1.67;;
65879;SDS011;52661;51.364;6.054;2023-04-24T09:09:44;9.57;;;2.78;;
65879;SDS011;52661;51.364;6.054;2023-04-24T09:12:10;11.57;;;2.55;;
65879;SDS011;52661;51.364;6.054;2023-04-24T09:14:36;6.88;;;2.50;;
65879;SDS011;52661;51.364;6.054;2023-04-24T09:17:07;12.32;;;2.58;;
65879;SDS011;52661;51.364;6.054;2023-04-24T09:19:33;5.03;;;2.22;;
65879;SDS011;52661;51.364;6.054;2023-04-24T09:21:58;8.67;;;2.33;;
65879;SDS011;52661;51.364;6.054;2023-04-24T09:24:23;14.85;;;3.15;;
65879;SDS011;52661;51.364;6.054;2023-04-24T09:26:49;8.70;;;3.15;;
65879;SDS011;52661;51.364;6.054;2023-04-24T09:29:26;5.57;;;2.13;;
65879;SDS011;52661;51.364;6.054;2023-04-24T09:31:52;7.50;;;3.25;;
65879;SDS011;52661;51.364;6.054;2023-04-24T09:34:21;5.10;;;1.92;;
65879;SDS011;52661;51.364;6.054;2023-04-24T09:36:48;7.97;;;2.67;;
65879;SDS011;52661;51.364;6.054;2023-04-24T09:39:15;9.63;;;2.45;;
65879;SDS011;52661;51.364;6.054;2023-04-24T09:41:44;10.60;;;2.85;;
65879;SDS011;52661;51.364;6.054;2023-04-24T09:44:11;8.73;;;2.08;;
65879;SDS011;52661;51.364;6.054;2023-04-24T09:46:39;9.10;;;2.47;;
65879;SDS011;52661;51.364;6.054;2023-04-24T09:49:13;8.63;;;3.10;;
65879;SDS011;52661;51.364;6.054;2023-04-24T09:51:40;6.78;;;2.33;;
65879;SDS011;52661;51.364;6.054;2023-04-24T09:54:16;6.63;;;2.35;;
65879;SDS011;52661;51.364;6.054;2023-04-24T09:56:44;5.85;;;2.20;;
65879;SDS011;52661;51.364;6.054;2023-04-24T09:59:10;6.05;;;2.40;;
65879;SDS011;52661;51.364;6.054;2023-04-24T10:01:36;9.88;;;1.98;;
65879;SDS011;52661;51.364;6.054;2023-04-24T10:04:03;4.80;;;1.42;;
65879;SDS011;52661;51.364;6.054;2023-04-24T10:06:34;3.70;;;0.80;;
65879;SDS011;52661;51.364;6.054;2023-04-24T10:09:01;7.30;;;1.70;;
65879;SDS011;52661;51.364;6.054;2023-04-24T10:11:28;6.90;;;1.60;;
65879;SDS011;52661;51.364;6.054;2023-04-24T10:13:55;7.20;;;1.48;;
65879;SDS011;52661;51.364;6.054;2023-04-24T10:16:21;5.30;;;0.77;;
65879;SDS011;52661;51.364;6.054;2023-04-24T10:18:47;5.53;;;1.27;;
65879;SDS011;52661;51.364;6.054;2023-04-24T10:21:14;6.95;;;1.33;;
65879;SDS011;52661;51.364;6.054;2023-04-24T10:23:40;7.88;;;2.15;;
65879;SDS011;52661;51.364;6.054;2023-04-24T10:26:08;5.75;;;1.50;;
65879;SDS011;52661;51.364;6.054;2023-04-24T10:28:35;6.43;;;1.23;;
65879;SDS011;52661;51.364;6.054;2023-04-24T10:31:01;6.57;;;2.13;;
65879;SDS011;52661;51.364;6.054;2023-04-24T10:33:27;6.03;;;1.05;;
65879;SDS011;52661;51.364;6.054;2023-04-24T10:35:55;5.35;;;1.20;;
65879;SDS011;52661;51.364;6.054;2023-04-24T10:38:24;3.75;;;1.35;;
65879;SDS011;52661;51.364;6.054;2023-04-24T10:40:51;8.27;;;1.10;;
65879;SDS011;52661;51.364;6.054;2023-04-24T10:43:31;3.35;;;0.63;;
65879;SDS011;52661;51.364;6.054;2023-04-24T10:46:02;6.18;;;0.80;;
65879;SDS011;52661;51.364;6.054;2023-04-24T10:48:28;5.93;;;1.38;;
65879;SDS011;52661;51.364;6.054;2023-04-24T10:50:54;5.13;;;1.05;;
65879;SDS011;52661;51.364;6.054;2023-04-24T10:53:20;5.37;;;0.77;;
65879;SDS011;52661;51.364;6.054;2023-04-24T10:55:49;4.70;;;1.25;;
65879;SDS011;52661;51.364;6.054;2023-04-24T10:58:16;4.88;;;0.93;;
65879;SDS011;52661;51.364;6.054;2023-04-24T11:01:00;4.22;;;0.95;;
65879;SDS011;52661;51.364;6.054;2023-04-24T11:03:26;4.53;;;0.93;;
65879;SDS011;52661;51.364;6.054;2023-04-24T11:08:27;5.53;;;1.13;;
65879;SDS011;52661;51.364;6.054;2023-04-24T11:14:00;4.68;;;0.75;;
65879;SDS011;52661;51.364;6.054;2023-04-24T11:17:00;12.15;;;1.08;;
65879;SDS011;52661;51.364;6.054;2023-04-24T11:19:17;6.97;;;0.82;;
65879;SDS011;52661;51.364;6.054;2023-04-24T11:27:15;5.93;;;1.25;;
65879;SDS011;52661;51.364;6.054;2023-04-24T11:35:02;2.47;;;0.68;;
65879;SDS011;52661;51.364;6.054;2023-04-24T11:37:37;5.72;;;0.45;;
65879;SDS011;52661;51.364;6.054;2023-04-24T11:40:05;7.38;;;0.85;;
65879;SDS011;52661;51.364;6.054;2023-04-24T11:42:40;3.25;;;1.15;;
65879;SDS011;52661;51.364;6.054;2023-04-24T11:45:08;3.95;;;0.63;;
65879;SDS011;52661;51.364;6.054;2023-04-24T11:50:01;3.55;;;0.75;;
65879;SDS011;52661;51.364;6.054;2023-04-24T11:52:28;2.70;;;0.43;;
65879;SDS011;52661;51.364;6.054;2023-04-24T11:54:54;2.25;;;0.40;;
65879;SDS011;52661;51.364;6.054;2023-04-24T11:57:20;2.15;;;0.30;;
65879;SDS011;52661;51.364;6.054;2023-04-24T11:59:47;1.83;;;0.32;;
65879;SDS011;52661;51.364;6.054;2023-04-24T12:02:22;3.95;;;0.60;;
65879;SDS011;52661;51.364;6.054;2023-04-24T12:04:48;4.00;;;0.43;;
65879;SDS011;52661;51.364;6.054;2023-04-24T12:07:14;2.08;;;0.45;;
65879;SDS011;52661;51.364;6.054;2023-04-24T12:09:47;1.40;;;0.40;;
65879;SDS011;52661;51.364;6.054;2023-04-24T12:12:15;1.27;;;0.63;;
65879;SDS011;52661;51.364;6.054;2023-04-24T12:17:24;6.05;;;0.70;;
65879;SDS011;52661;51.364;6.054;2023-04-24T12:20:02;2.38;;;0.43;;
65879;SDS011;52661;51.364;6.054;2023-04-24T12:25:13;2.35;;;0.73;;
65879;SDS011;52661;51.364;6.054;2023-04-24T12:27:39;2.47;;;0.20;;
65879;SDS011;52661;51.364;6.054;2023-04-24T12:30:05;1.25;;;0.43;;
65879;SDS011;52661;51.364;6.054;2023-04-24T12:32:34;1.70;;;1.17;;
65879;SDS011;52661;51.364;6.054;2023-04-24T12:34:59;6.00;;;0.35;;
65879;SDS011;52661;51.364;6.054;2023-04-24T12:37:25;1.57;;;0.33;;
65879;SDS011;52661;51.364;6.054;2023-04-24T12:40:05;3.75;;;0.47;;
65879;SDS011;52661;51.364;6.054;2023-04-24T12:42:31;1.30;;;0.13;;
65879;SDS011;52661;51.364;6.054;2023-04-24T12:45:04;1.02;;;0.20;;
65879;SDS011;52661;51.364;6.054;2023-04-24T12:47:31;0.80;;;0.10;;
65879;SDS011;52661;51.364;6.054;2023-04-24T12:49:58;2.15;;;0.20;;
65879;SDS011;52661;51.364;6.054;2023-04-24T12:52:25;0.90;;;0.30;;
65879;SDS011;52661;51.364;6.054;2023-04-24T12:54:56;1.55;;;0.30;;
65879;SDS011;52661;51.364;6.054;2023-04-24T12:57:24;1.52;;;0.60;;
65879;SDS011;52661;51.364;6.054;2023-04-24T12:59:50;1.40;;;0.30;;
65879;SDS011;52661;51.364;6.054;2023-04-24T13:02:15;2.55;;;0.35;;
65879;SDS011;52661;51.364;6.054;2023-04-24T13:04:44;3.40;;;0.50;;
65879;SDS011;52661;51.364;6.054;2023-04-24T13:07:11;0.70;;;0.30;;
65879;SDS011;52661;51.364;6.054;2023-04-24T13:09:37;1.83;;;0.50;;
65879;SDS011;52661;51.364;6.054;2023-04-24T13:12:03;1.00;;;0.35;;
65879;SDS011;52661;51.364;6.054;2023-04-24T13:14:30;0.70;;;0.32;;
65879;SDS011;52661;51.364;6.054;2023-04-24T13:16:56;1.00;;;0.43;;
65879;SDS011;52661;51.364;6.054;2023-04-24T13:19:21;1.33;;;0.20;;
65879;SDS011;52661;51.364;6.054;2023-04-24T13:21:49;1.15;;;0.30;;
65879;SDS011;52661;51.364;6.054;2023-04-24T13:24:14;1.95;;;0.43;;
65879;SDS011;52661;51.364;6.054;2023-04-24T13:26:40;1.02;;;0.32;;
65879;SDS011;52661;51.364;6.054;2023-04-24T13:29:06;3.97;;;0.38;;
65879;SDS011;52661;51.364;6.054;2023-04-24T13:31:31;1.50;;;0.30;;
65879;SDS011;52661;51.364;6.054;2023-04-24T13:33:56;0.93;;;0.25;;
65879;SDS011;52661;51.364;6.054;2023-04-24T13:36:22;1.93;;;1.10;;
65879;SDS011;52661;51.364;6.054;2023-04-24T13:38:47;0.80;;;0.30;;
65879;SDS011;52661;51.364;6.054;2023-04-24T13:41:12;2.37;;;0.30;;
65879;SDS011;52661;51.364;6.054;2023-04-24T13:43:38;1.37;;;0.23;;
65879;SDS011;52661;51.364;6.054;2023-04-24T13:46:03;1.40;;;0.40;;
65879;SDS011;52661;51.364;6.054;2023-04-24T13:48:29;1.20;;;0.20;;
65879;SDS011;52661;51.364;6.054;2023-04-24T13:50:55;1.35;;;0.35;;
65879;SDS011;52661;51.364;6.054;2023-04-24T13:53:20;1.83;;;0.77;;
65879;SDS011;52661;51.364;6.054;2023-04-24T13:55:45;1.87;;;0.40;;
65879;SDS011;52661;51.364;6.054;2023-04-24T13:58:11;3.15;;;0.57;;
65879;SDS011;52661;51.364;6.054;2023-04-24T14:00:36;1.00;;;0.43;;
65879;SDS011;52661;51.364;6.054;2023-04-24T14:03:01;1.90;;;0.50;;
65879;SDS011;52661;51.364;6.054;2023-04-24T14:05:27;2.83;;;0.40;;
65879;SDS011;52661;51.364;6.054;2023-04-24T14:07:52;2.80;;;0.50;;
65879;SDS011;52661;51.364;6.054;2023-04-24T14:10:17;3.00;;;0.50;;
65879;SDS011;52661;51.364;6.054;2023-04-24T14:12:43;1.33;;;0.30;;
65879;SDS011;52661;51.364;6.054;2023-04-24T14:15:08;3.20;;;0.60;;
65879;SDS011;52661;51.364;6.054;2023-04-24T14:17:34;2.70;;;0.55;;
65879;SDS011;52661;51.364;6.054;2023-04-24T14:20:00;6.47;;;0.90;;
65879;SDS011;52661;51.364;6.054;2023-04-24T14:22:25;2.35;;;0.73;;
65879;SDS011;52661;51.364;6.054;2023-04-24T14:24:51;3.80;;;0.60;;
65879;SDS011;52661;51.364;6.054;2023-04-24T14:27:16;4.83;;;0.40;;
65879;SDS011;52661;51.364;6.054;2023-04-24T14:29:42;2.83;;;0.50;;
65879;SDS011;52661;51.364;6.054;2023-04-24T14:32:07;2.55;;;0.38;;
65879;SDS011;52661;51.364;6.054;2023-04-24T14:34:33;1.38;;;0.32;;
65879;SDS011;52661;51.364;6.054;2023-04-24T14:36:59;1.95;;;0.35;;
65879;SDS011;52661;51.364;6.054;2023-04-24T14:39:25;2.75;;;0.52;;
65879;SDS011;52661;51.364;6.054;2023-04-24T14:41:50;2.97;;;0.50;;
65879;SDS011;52661;51.364;6.054;2023-04-24T14:44:15;2.07;;;0.50;;
65879;SDS011;52661;51.364;6.054;2023-04-24T14:46:41;5.82;;;0.82;;
65879;SDS011;52661;51.364;6.054;2023-04-24T14:49:08;3.40;;;0.55;;
65879;SDS011;52661;51.364;6.054;2023-04-24T14:51:35;2.35;;;0.65;;
65879;SDS011;52661;51.364;6.054;2023-04-24T14:54:00;2.22;;;0.40;;
65879;SDS011;52661;51.364;6.054;2023-04-24T14:56:26;2.97;;;0.77;;
65879;SDS011;52661;51.364;6.054;2023-04-24T14:58:51;1.17;;;0.40;;
65879;SDS011;52661;51.364;6.054;2023-04-24T15:01:17;3.83;;;0.60;;
65879;SDS011;52661;51.364;6.054;2023-04-24T15:03:42;4.13;;;0.75;;
65879;SDS011;52661;51.364;6.054;2023-04-24T15:06:08;2.17;;;0.63;;
65879;SDS011;52661;51.364;6.054;2023-04-24T15:08:33;6.13;;;0.40;;